Ship Status Report: callsign OS8154

sailwx.info

Track history (hours):
 
Tides and Currents Weather Stations Pressure Air Temp Water Temp Dewpoint Dewpoint Depression Visibility Wind Speed Wind Dir Waves Ship Positions

Callsign OS8154 (name unknown)

Last reported at 2014-Jul-25 02:00 UTC. Time now 2014-Jul-25 03:36 UTC.
Position N 69°24' W 118°06'.

Barometer 1005.6 mb
Air temperature 8.8 ° C

Date/timePositionNaut miles runAvg speedWind from/ knotsBaromVisibWave heightAir tempDewpointWater temp
2014-Jul-25 02:00N 69°24' W 118°06'1010.3 1005.6 8.8
2014-Jul-25 01:00N 69°30' W 118°30'8 8.4 1005.4 9.0
2014-Jul-25 00:00N 69°30' W 118°54'1010.3 1005.5 10.5
2014-Jul-24 23:00N 69°36' W 119°18'1010.3 1005.3 9.0
2014-Jul-24 22:00N 69°42' W 119°42'20 9.8 1004.7 8.3
2014-Jul-24 20:00N 69°48' W 120°36'8 8.3 1004.7 8.0
2014-Jul-24 19:00N 69°48' W 121°00'1010.4 1004.6 8.5
2014-Jul-24 18:00N 69°48' W 121°30'8 8.3 1004.4 8.8
2014-Jul-24 17:00N 69°48' W 121°54'1010.2 1004.2 9.0
2014-Jul-24 16:00N 69°54' W 122°18'1010.2 1004.3 8.5
2014-Jul-24 15:00N 69°48' W 122°42'0 0.0 1004.1 9.5
2014-Jul-24 13:00N 69°48' W 122°42'0 0.0 1004.0 8.5
2014-Jul-24 12:00N 69°48' W 122°42'0 0.0 1004.0 8.5
2014-Jul-24 11:00N 69°48' W 122°42'0 0.0 1003.8 9.3
2014-Jul-24 10:00N 69°48' W 122°42'0 0.0 1003.7 8.5
2014-Jul-24 09:00N 69°48' W 122°42'0 0.0 1003.7 8.0
2014-Jul-24 08:00N 69°48' W 122°42'0 0.0 1002.7 8.0
2014-Jul-24 07:00N 69°48' W 122°42'0 0.0 1002.5 8.8
2014-Jul-24 06:00N 69°48' W 122°42'0 0.0 1003.4 8.8
2014-Jul-24 02:00N 69°48' W 122°42'0 0.0 1004.2 9.3
2014-Jul-24 01:00N 69°48' W 122°42'6 6.2 1004.0 9.3
2014-Jul-24 00:00N 69°48' W 123°00'9 8.6 1004.9 11.0
2014-Jul-23 23:00N 69°42' W 123°18'9 8.7 1004.9 11.3
2014-Jul-23 22:00N 69°36' W 123°36'9 8.7 1005.0 11.0
2014-Jul-23 21:00N 69°30' W 123°54'   1005.4 13.8
Track history (hours):
 
Tides and Currents Weather Stations Pressure Air Temp Water Temp Dewpoint Dewpoint Depression Visibility Wind Speed Wind Dir Waves Ship Positions

Callsign OS8154 (name unknown)

Last reported at 2014-Jul-25 02:00 UTC. Time now 2014-Jul-25 03:36 UTC.
Position N 69°24' W 118°06'.

Barometer 1005.6 mb
Air temperature 8.8 ° C

Date/timePositionNaut miles runAvg speedWind from/ knotsBaromVisibWave heightAir tempDewpointWater temp
2014-Jul-25 02:00N 69°24' W 118°06'1010.3 1005.6 8.8
2014-Jul-25 01:00N 69°30' W 118°30'8 8.4 1005.4 9.0
2014-Jul-25 00:00N 69°30' W 118°54'1010.3 1005.5 10.5
2014-Jul-24 23:00N 69°36' W 119°18'1010.3 1005.3 9.0
2014-Jul-24 22:00N 69°42' W 119°42'20 9.8 1004.7 8.3
2014-Jul-24 20:00N 69°48' W 120°36'8 8.3 1004.7 8.0
2014-Jul-24 19:00N 69°48' W 121°00'1010.4 1004.6 8.5
2014-Jul-24 18:00N 69°48' W 121°30'8 8.3 1004.4 8.8
2014-Jul-24 17:00N 69°48' W 121°54'1010.2 1004.2 9.0
2014-Jul-24 16:00N 69°54' W 122°18'1010.2 1004.3 8.5
2014-Jul-24 15:00N 69°48' W 122°42'0 0.0 1004.1 9.5
2014-Jul-24 13:00N 69°48' W 122°42'0 0.0 1004.0 8.5
2014-Jul-24 12:00N 69°48' W 122°42'0 0.0 1004.0 8.5
2014-Jul-24 11:00N 69°48' W 122°42'0 0.0 1003.8 9.3
2014-Jul-24 10:00N 69°48' W 122°42'0 0.0 1003.7 8.5
2014-Jul-24 09:00N 69°48' W 122°42'0 0.0 1003.7 8.0
2014-Jul-24 08:00N 69°48' W 122°42'0 0.0 1002.7 8.0
2014-Jul-24 07:00N 69°48' W 122°42'0 0.0 1002.5 8.8
2014-Jul-24 06:00N 69°48' W 122°42'0 0.0 1003.4 8.8
2014-Jul-24 02:00N 69°48' W 122°42'0 0.0 1004.2 9.3
2014-Jul-24 01:00N 69°48' W 122°42'6 6.2 1004.0 9.3
2014-Jul-24 00:00N 69°48' W 123°00'9 8.6 1004.9 11.0
2014-Jul-23 23:00N 69°42' W 123°18'9 8.7 1004.9 11.3
2014-Jul-23 22:00N 69°36' W 123°36'9 8.7 1005.0 11.0
2014-Jul-23 21:00N 69°30' W 123°54'   1005.4 13.8

Dump ship's entire track history